createdAt,value
2019-02-19T00:00:32.366Z,4.12
2019-02-19T00:01:32.499Z,4.1
2019-02-19T00:02:32.910Z,4.02
2019-02-19T00:03:33.880Z,3.89
2019-02-19T00:04:33.863Z,3.89
2019-02-19T00:05:35.112Z,3.84
2019-02-19T00:06:34.933Z,3.86
2019-02-19T00:07:35.899Z,3.7
2019-02-19T00:08:37.034Z,3.61
2019-02-19T00:09:38.003Z,3.63
2019-02-19T00:10:38.139Z,3.64
2019-02-19T00:11:38.832Z,3.58
2019-02-19T00:12:40.277Z,3.48
2019-02-19T00:13:40.964Z,3.56
2019-02-19T00:14:41.101Z,3.4
2019-02-19T00:15:41.795Z,3.46
2019-02-19T00:16:42.639Z,3.55
2019-02-19T00:17:43.328Z,3.5
2019-02-19T00:18:44.461Z,3.55
2019-02-19T00:19:45.152Z,3.41
2019-02-19T00:20:46.565Z,3.41
2019-02-19T00:21:46.978Z,3.49
2019-02-19T00:22:47.681Z,3.49
2019-02-19T00:23:48.379Z,3.5
2019-02-19T00:24:49.833Z,3.52
2019-02-19T00:25:49.804Z,3.49
2019-02-19T00:26:50.953Z,3.45
2019-02-19T00:27:51.922Z,3.45
2019-02-19T00:28:52.890Z,3.37
2019-02-19T00:29:53.308Z,3.22
2019-02-19T00:30:54.720Z,3.3
2019-02-19T00:31:55.421Z,3.3
2019-02-19T00:32:56.389Z,3.4
2019-02-19T00:33:57.359Z,3.33
2019-02-19T00:34:58.348Z,3.34
2019-02-19T00:35:59.033Z,3.49
2019-02-19T00:36:59.596Z,3.34
2019-02-19T00:38:00.296Z,3.36
2019-02-19T00:39:00.989Z,3.26
2019-02-19T00:40:02.236Z,3.33
2019-02-19T00:41:02.208Z,3.41
2019-02-19T00:42:02.917Z,3.46
2019-02-19T00:43:04.448Z,3.37
2019-02-19T00:44:05.140Z,3.49
2019-02-19T00:45:06.113Z,3.46
2019-02-19T00:46:07.083Z,3.31
2019-02-19T00:47:09.040Z,3.24
2019-02-19T00:48:08.729Z,3.26
2019-02-19T00:49:09.423Z,3.36
2019-02-19T00:50:10.403Z,3.34
2019-02-19T00:51:10.552Z,3.34
2019-02-19T00:52:11.266Z,3.43
2019-02-19T00:53:11.679Z,3.43
2019-02-19T00:54:12.646Z,3.45
2019-02-19T00:55:12.634Z,3.41
2019-02-19T00:56:13.330Z,3.46
2019-02-19T00:57:14.163Z,3.52
2019-02-19T00:58:15.693Z,3.63
2019-02-19T00:59:15.828Z,3.61
2019-02-19T01:00:16.804Z,3.64
2019-02-19T01:01:17.775Z,3.63
2019-02-19T01:02:18.191Z,3.68
2019-02-19T01:03:19.157Z,3.63
2019-02-19T01:04:19.848Z,3.58
2019-02-19T01:05:20.535Z,3.63
2019-02-19T01:06:21.675Z,3.66
2019-02-19T01:07:22.531Z,3.64
2019-02-19T01:08:22.774Z,3.64
2019-02-19T01:09:23.780Z,3.56
2019-02-19T01:10:24.471Z,3.59
2019-02-19T01:11:24.893Z,3.48
2019-02-19T01:12:25.303Z,3.49
2019-02-19T01:13:25.715Z,3.3
2019-02-19T01:14:26.423Z,3.3
2019-02-19T01:15:28.429Z,3.34
2019-02-19T01:16:29.124Z,3.36
2019-02-19T01:17:29.779Z,3.27
2019-02-19T01:18:30.307Z,3.26
2019-02-19T01:19:30.723Z,3.13
2019-02-19T01:20:30.689Z,3.19
2019-02-19T01:21:31.655Z,3.09
2019-02-19T01:22:32.067Z,3.06
2019-02-19T01:23:33.044Z,3.08
2019-02-19T01:24:33.455Z,3.06
2019-02-19T01:25:34.710Z,2.98
2019-02-19T01:26:35.677Z,2.94
2019-02-19T01:27:35.778Z,2.98
2019-02-19T01:28:36.205Z,2.91
2019-02-19T01:29:36.896Z,2.95
2019-02-19T01:30:38.032Z,2.87
2019-02-19T01:31:38.447Z,2.93
2019-02-19T01:32:39.860Z,2.9
2019-02-19T01:33:40.599Z,2.94
2019-02-19T01:34:41.013Z,3
2019-02-19T01:35:41.983Z,2.93
2019-02-19T01:36:42.394Z,2.95
2019-02-19T01:37:42.969Z,2.94
2019-02-19T01:38:43.662Z,2.94
2019-02-19T01:39:43.800Z,2.9
2019-02-19T01:40:44.491Z,2.9
2019-02-19T01:41:45.495Z,2.98
2019-02-19T01:42:46.463Z,3.01
2019-02-19T01:43:47.434Z,2.9
2019-02-19T01:44:48.193Z,2.88
2019-02-19T01:45:49.161Z,2.9
2019-02-19T01:46:49.578Z,2.91
2019-02-19T01:47:51.226Z,3.08
2019-02-19T01:48:51.915Z,3.13
2019-02-19T01:49:52.613Z,3.11
2019-02-19T01:50:53.306Z,3.21
2019-02-19T01:51:54.277Z,3.26
2019-02-19T01:52:55.240Z,3.18
2019-02-19T01:53:55.654Z,3.13
2019-02-19T01:54:56.351Z,3.21
2019-02-19T01:55:56.490Z,3.12
2019-02-19T01:56:57.455Z,3.19
2019-02-19T01:57:57.718Z,3.08
2019-02-19T01:58:58.685Z,3.21
2019-02-19T01:59:59.940Z,3.19
2019-02-19T02:01:01.094Z,3.4
2019-02-19T02:02:01.228Z,3.29
2019-02-19T02:03:01.927Z,3.36
2019-02-19T02:04:03.182Z,3.36
2019-02-19T02:05:04.151Z,3.08
2019-02-19T02:06:05.118Z,3.15
2019-02-19T02:07:05.601Z,3.15
2019-02-19T02:08:06.840Z,3.12
2019-02-19T02:09:08.109Z,3.12
2019-02-19T02:10:08.363Z,3.08
2019-02-19T02:11:08.498Z,3.16
2019-02-19T02:12:09.485Z,3.12
2019-02-19T02:13:10.177Z,3.06
2019-02-19T02:14:11.309Z,3.12
2019-02-19T02:15:11.721Z,3.12
2019-02-19T02:16:12.409Z,3.15
2019-02-19T02:17:12.874Z,3.08
2019-02-19T02:18:13.692Z,3.06
2019-02-19T02:19:14.660Z,3.09
2019-02-19T02:20:15.943Z,3.08
2019-02-19T02:21:16.261Z,2.97
2019-02-19T02:22:16.671Z,2.94
2019-02-19T02:23:17.365Z,2.93
2019-02-19T02:24:18.605Z,2.83
2019-02-19T02:25:18.876Z,2.8
2019-02-19T02:26:19.843Z,2.75
2019-02-19T02:27:20.535Z,2.72
2019-02-19T02:28:21.930Z,2.7
2019-02-19T02:29:22.669Z,2.64
2019-02-19T02:30:23.640Z,2.7
2019-02-19T02:31:25.022Z,2.7
2019-02-19T02:32:25.270Z,2.73
2019-02-19T02:33:25.794Z,2.7
2019-02-19T02:34:26.761Z,2.73
2019-02-19T02:35:27.454Z,2.61
2019-02-19T02:36:28.433Z,2.59
2019-02-19T02:37:28.167Z,2.58
2019-02-19T02:38:29.270Z,2.65
2019-02-19T02:39:30.514Z,2.7
2019-02-19T02:40:31.906Z,2.64
2019-02-19T02:41:31.340Z,2.76
2019-02-19T02:42:32.363Z,2.7
2019-02-19T02:43:33.055Z,2.75
2019-02-19T02:44:34.033Z,2.73
2019-02-19T02:45:35.307Z,2.72
2019-02-19T02:46:35.834Z,2.76
2019-02-19T02:47:36.409Z,2.68
2019-02-19T02:48:37.373Z,2.76
2019-02-19T02:49:37.625Z,2.76
2019-02-19T02:50:38.594Z,2.75
2019-02-19T02:51:39.565Z,2.76
2019-02-19T02:52:40.257Z,2.79
2019-02-19T02:53:40.674Z,2.76
2019-02-19T02:54:41.104Z,2.73
2019-02-19T02:55:41.790Z,2.75
2019-02-19T02:56:43.050Z,2.76
2019-02-19T02:57:44.018Z,2.7
2019-02-19T02:58:44.432Z,2.72
2019-02-19T02:59:44.847Z,2.76
2019-02-19T03:00:45.295Z,2.7
2019-02-19T03:01:46.544Z,2.69
2019-02-19T03:02:47.524Z,2.72
2019-02-19T03:03:48.228Z,2.8
2019-02-19T03:04:49.648Z,2.73
2019-02-19T03:05:50.794Z,2.75
2019-02-19T03:06:51.483Z,2.73
2019-02-19T03:07:51.738Z,2.69
2019-02-19T03:08:52.939Z,2.65
2019-02-19T03:09:53.629Z,2.65
2019-02-19T03:10:54.319Z,2.73
2019-02-19T03:11:55.304Z,2.65
2019-02-19T03:12:55.740Z,2.69
2019-02-19T03:13:56.702Z,2.64
2019-02-19T03:14:57.665Z,2.65
2019-02-19T03:16:04.124Z,2.62
2019-02-19T03:16:10.398Z,2.55
2019-02-19T03:17:11.222Z,2.69
2019-02-19T03:18:13.824Z,2.55
2019-02-19T03:19:13.071Z,2.55
2019-02-19T03:20:14.040Z,2.61
2019-02-19T03:21:14.731Z,2.7
2019-02-19T03:22:15.148Z,2.65
2019-02-19T03:23:15.848Z,2.73
2019-02-19T03:24:16.814Z,2.65
2019-02-19T03:25:17.783Z,2.68
2019-02-19T03:26:18.487Z,2.51
2019-02-19T03:27:18.915Z,2.54
2019-02-19T03:28:19.347Z,2.58
2019-02-19T03:29:19.761Z,2.59
2019-02-19T03:30:21.351Z,2.52
2019-02-19T03:31:21.987Z,2.43
2019-02-19T03:32:22.796Z,2.36
2019-02-19T03:33:23.670Z,2.47
2019-02-19T03:34:24.032Z,2.46
2019-02-19T03:35:24.308Z,2.44
2019-02-19T03:36:25.293Z,2.58
2019-02-19T03:37:26.247Z,2.46
2019-02-19T03:38:27.212Z,2.37
2019-02-19T03:39:27.906Z,2.32
2019-02-19T03:40:29.155Z,2.33
2019-02-19T03:41:29.985Z,2.34
2019-02-19T03:42:30.399Z,2.33
2019-02-19T03:43:30.809Z,2.21
2019-02-19T03:44:32.253Z,2.3
2019-02-19T03:45:33.376Z,2.25
2019-02-19T03:46:34.370Z,2.14
2019-02-19T03:47:34.768Z,2.22
2019-02-19T03:48:36.041Z,2.19
2019-02-19T03:49:37.078Z,2.22
2019-02-19T03:50:37.493Z,2.28
2019-02-19T03:51:38.199Z,2.25
2019-02-19T03:52:38.931Z,2.32
2019-02-19T03:53:39.907Z,2.33
2019-02-19T03:54:41.170Z,2.28
2019-02-19T03:55:41.864Z,2.23
2019-02-19T03:56:42.559Z,2.3
2019-02-19T03:57:42.671Z,2.36
2019-02-19T03:58:44.224Z,2.36
2019-02-19T03:59:44.911Z,2.41
2019-02-19T04:00:45.155Z,2.33
2019-02-19T04:01:46.125Z,2.39
2019-02-19T04:02:46.821Z,2.33
2019-02-19T04:03:47.232Z,2.3
2019-02-19T04:04:47.781Z,2.23
2019-02-19T04:05:48.249Z,2.1
2019-02-19T04:06:49.230Z,2.16
2019-02-19T04:07:49.451Z,2.16
2019-02-19T04:08:50.861Z,2.08
2019-02-19T04:09:51.828Z,2.04
2019-02-19T04:10:52.245Z,2.03
2019-02-19T04:11:52.938Z,2.05
2019-02-19T04:12:53.903Z,1.95
2019-02-19T04:13:54.869Z,1.86
2019-02-19T04:14:55.864Z,1.89
2019-02-19T04:15:56.834Z,1.79
2019-02-19T04:16:58.170Z,1.82
2019-02-19T04:17:58.570Z,1.76
2019-02-19T04:18:59.274Z,1.84
2019-02-19T04:20:00.524Z,1.86
2019-02-19T04:21:01.500Z,1.92
2019-02-19T04:22:02.748Z,1.86
2019-02-19T04:23:03.166Z,1.82
2019-02-19T04:24:04.177Z,1.84
2019-02-19T04:25:05.471Z,1.95
2019-02-19T04:26:06.456Z,1.88
2019-02-19T04:27:06.709Z,1.84
2019-02-19T04:28:07.361Z,1.82
2019-02-19T04:29:08.335Z,1.78
2019-02-19T04:30:09.311Z,1.76
2019-02-19T04:31:09.570Z,1.84
2019-02-19T04:32:09.818Z,1.79
2019-02-19T04:33:11.525Z,1.84
2019-02-19T04:34:11.857Z,1.88
2019-02-19T04:35:12.131Z,1.88
2019-02-19T04:36:13.384Z,1.97
2019-02-19T04:37:14.350Z,1.92
2019-02-19T04:38:15.484Z,2.04
2019-02-19T04:39:15.217Z,2.04
2019-02-19T04:40:15.911Z,2.08
2019-02-19T04:41:17.460Z,2.05
2019-02-19T04:42:18.361Z,2.18
2019-02-19T04:43:18.133Z,2.14
2019-02-19T04:44:19.102Z,2.12
2019-02-19T04:45:20.377Z,2.16
2019-02-19T04:46:33.137Z,2.14
2019-02-19T04:47:33.815Z,2.28
2019-02-19T04:48:33.960Z,2.32
2019-02-19T04:49:34.981Z,2.34
2019-02-19T04:50:35.951Z,2.32
2019-02-19T04:51:36.641Z,2.34
2019-02-19T04:52:36.945Z,2.4
2019-02-19T04:53:37.194Z,2.36
2019-02-19T04:54:37.912Z,2.44
2019-02-19T04:55:38.944Z,2.4
2019-02-19T04:56:39.658Z,2.3
2019-02-19T04:57:40.611Z,2.37
2019-02-19T04:58:41.909Z,2.32
2019-02-19T04:59:42.601Z,2.37
2019-02-19T05:00:43.405Z,2.33
2019-02-19T05:01:43.820Z,2.26
2019-02-19T05:02:44.814Z,2.36
2019-02-19T05:03:46.098Z,2.34
2019-02-19T05:04:46.355Z,2.28
2019-02-19T05:05:46.909Z,2.3
2019-02-19T05:06:47.903Z,2.34
2019-02-19T05:07:48.747Z,2.32
2019-02-19T05:08:50.004Z,2.36
2019-02-19T05:09:50.972Z,2.3
2019-02-19T05:10:51.664Z,2.28
2019-02-19T05:11:52.638Z,2.25
2019-02-19T05:12:53.321Z,2.19
2019-02-19T05:13:54.566Z,2.1
2019-02-19T05:14:54.843Z,2.14
2019-02-19T05:15:54.826Z,2.12
2019-02-19T05:16:55.516Z,2.08
2019-02-19T05:17:56.077Z,2.12
2019-02-19T05:18:56.924Z,2.21
2019-02-19T05:19:57.892Z,2.25
2019-02-19T05:20:58.431Z,2.32
2019-02-19T05:21:59.123Z,2.22
2019-02-19T05:23:00.540Z,2.19
2019-02-19T05:24:01.510Z,2.18
2019-02-19T05:25:02.258Z,2.12
2019-02-19T05:26:03.259Z,2.21
2019-02-19T05:27:03.681Z,2.22
2019-02-19T05:28:04.643Z,2.23
2019-02-19T05:29:05.372Z,2.23
2019-02-19T05:30:05.897Z,2.16
2019-02-19T05:31:06.316Z,2.14
2019-02-19T05:32:08.121Z,2.16
2019-02-19T05:33:08.810Z,2.1
2019-02-19T05:34:09.513Z,2.21
2019-02-19T05:35:10.522Z,2.22
2019-02-19T05:36:10.776Z,2.22
2019-02-19T05:37:11.803Z,2.21
2019-02-19T05:38:12.779Z,2.25
2019-02-19T05:39:13.027Z,2.22
2019-02-19T05:40:13.714Z,2.23
2019-02-19T05:41:14.686Z,2.36
2019-02-19T05:42:15.382Z,2.26
2019-02-19T05:43:16.399Z,2.34
2019-02-19T05:44:17.369Z,2.3
2019-02-19T05:45:18.341Z,2.34
2019-02-19T05:46:18.754Z,2.21
2019-02-19T05:47:19.736Z,2.26
2019-02-19T05:48:20.411Z,2.34
2019-02-19T05:49:21.166Z,2.39
2019-02-19T05:50:21.589Z,2.3
2019-02-19T05:51:22.585Z,2.25
2019-02-19T05:52:23.272Z,2.26
2019-02-19T05:53:23.685Z,2.33
2019-02-19T05:54:25.240Z,2.34
2019-02-19T05:55:25.395Z,2.36
2019-02-19T05:56:26.401Z,2.39
2019-02-19T05:57:27.095Z,2.34
2019-02-19T05:58:27.751Z,2.37
2019-02-19T05:59:28.164Z,2.4
2019-02-19T06:00:29.412Z,2.44
2019-02-19T06:01:29.415Z,2.46
2019-02-19T06:02:30.380Z,2.54
2019-02-19T06:03:31.085Z,2.41
2019-02-19T06:04:31.790Z,2.54
2019-02-19T06:05:32.207Z,2.57
2019-02-19T06:06:32.625Z,2.55
2019-02-19T06:07:33.601Z,2.57
2019-02-19T06:08:34.698Z,2.7
2019-02-19T06:09:35.392Z,2.64
2019-02-19T06:10:36.365Z,2.69
2019-02-19T06:11:37.343Z,2.72
2019-02-19T06:12:38.329Z,2.7
2019-02-19T06:13:39.643Z,2.8
2019-02-19T06:14:40.066Z,2.7
2019-02-19T06:15:41.039Z,2.77
2019-02-19T06:16:42.029Z,2.76
2019-02-19T06:17:42.461Z,2.91
2019-02-19T06:18:43.224Z,2.93
2019-02-19T06:19:43.474Z,2.95
2019-02-19T06:20:44.759Z,3
2019-02-19T06:21:45.013Z,3.08
2019-02-19T06:22:46.814Z,3.01
2019-02-19T06:23:47.803Z,3.01
2019-02-19T06:24:48.816Z,3.09
2019-02-19T06:25:49.237Z,3.05
2019-02-19T06:26:49.935Z,3.05
2019-02-19T06:27:50.187Z,3.01
2019-02-19T06:28:50.307Z,3.09
2019-02-19T06:29:50.584Z,3.12
2019-02-19T06:30:51.900Z,3.09
2019-02-19T06:31:52.325Z,3.06
2019-02-19T06:32:53.024Z,3.03
2019-02-19T06:33:54.075Z,3.19
2019-02-19T06:34:54.404Z,3.37
2019-02-19T06:35:54.656Z,3.59
2019-02-19T06:36:56.269Z,3.64
2019-02-19T06:37:56.523Z,3.7
2019-02-19T06:38:56.263Z,3.66
2019-02-19T06:39:56.993Z,3.89
2019-02-19T06:40:57.966Z,3.99
2019-02-19T06:41:58.165Z,4.1
2019-02-19T06:42:59.033Z,4.16
2019-02-19T06:43:59.778Z,4.03
2019-02-19T06:45:00.973Z,4.07
2019-02-19T06:46:01.522Z,4.09
2019-02-19T06:47:08.129Z,4.18
2019-02-19T06:47:14.662Z,4.13
2019-02-19T06:48:15.209Z,4.1
2019-02-19T06:49:16.379Z,4.28
2019-02-19T06:50:17.349Z,4.21
2019-02-19T06:51:18.091Z,4.4
2019-02-19T06:52:18.788Z,4.5
2019-02-19T06:53:19.774Z,4.82
2019-02-19T06:54:19.917Z,4.82
2019-02-19T06:55:20.619Z,4.86
2019-02-19T06:56:21.323Z,5.02
2019-02-19T06:57:21.741Z,5.13
2019-02-19T06:58:22.612Z,5.38
2019-02-19T06:59:23.315Z,5.61
2019-02-19T07:00:24.013Z,6.02
2019-02-19T07:01:24.714Z,6.15
2019-02-19T07:02:26.125Z,6.06
2019-02-19T07:03:26.376Z,5.9
2019-02-19T07:04:27.424Z,5.69
2019-02-19T07:05:27.914Z,5.52
2019-02-19T07:06:28.338Z,5.51
2019-02-19T07:07:30.306Z,5.38
2019-02-19T07:08:30.737Z,5.28
2019-02-19T07:09:31.509Z,5.28
2019-02-19T07:10:36.098Z,5.33
2019-02-19T07:10:47.008Z,5.29
2019-02-19T07:11:45.539Z,5.16
2019-02-19T07:12:48.381Z,5.04
2019-02-19T07:13:02.274Z,5.05
2019-02-19T07:13:14.007Z,5.02
2019-02-19T07:14:12.934Z,5.01
2019-02-19T07:15:12.780Z,5.02
2019-02-19T07:16:13.813Z,4.82
2019-02-19T07:17:17.368Z,4.67
2019-02-19T07:18:17.626Z,4.68
2019-02-19T07:19:17.798Z,4.6
2019-02-19T07:20:18.218Z,4.82
2019-02-19T07:21:18.933Z,4.87
2019-02-19T07:22:19.910Z,4.76
2019-02-19T07:23:20.328Z,4.79
2019-02-19T07:24:07.074Z,4.87
2019-02-19T07:25:05.863Z,4.86
2019-02-19T07:26:06.176Z,5.15
2019-02-19T07:27:06.912Z,5.44
2019-02-19T07:28:07.612Z,5.55
2019-02-19T07:29:09.157Z,5.72
2019-02-19T07:30:09.921Z,5.94
2019-02-19T07:31:10.181Z,6.35
2019-02-19T07:32:11.434Z,6.9
2019-02-19T07:33:12.416Z,7.21
2019-02-19T07:34:12.839Z,7.51
2019-02-19T07:35:14.964Z,8.01
2019-02-19T07:36:13.950Z,8.44
2019-02-19T07:37:15.009Z,9
2019-02-19T07:38:19.103Z,9.74
2019-02-19T07:39:17.684Z,10.1
2019-02-19T07:40:18.770Z,10.65
2019-02-19T07:41:19.771Z,11.19
2019-02-19T07:42:21.072Z,11.77
2019-02-19T07:43:21.266Z,12.12
2019-02-19T07:44:23.684Z,12.17
2019-02-19T07:45:23.476Z,11.59
2019-02-19T07:46:24.863Z,10.84
2019-02-19T07:47:26.042Z,10.43
2019-02-19T07:48:27.510Z,10.31
2019-02-19T07:49:28.322Z,10.2
2019-02-19T07:50:29.063Z,10.1
2019-02-19T07:51:29.946Z,10.34
2019-02-19T07:52:33.673Z,10.8
2019-02-19T07:53:32.068Z,11.13
2019-02-19T07:54:34.371Z,11.44
2019-02-19T07:55:35.232Z,11.4
2019-02-19T07:56:35.657Z,11.4
2019-02-19T07:57:36.958Z,11.38
2019-02-19T07:58:37.685Z,11.37
2019-02-19T07:59:38.176Z,11.45
2019-02-19T08:00:38.879Z,11.33
2019-02-19T08:01:39.348Z,11.15
2019-02-19T08:02:40.121Z,11.01
2019-02-19T08:03:40.861Z,10.84
2019-02-19T08:04:42.341Z,10.82
2019-02-19T08:05:44.042Z,10.86
2019-02-19T08:06:44.746Z,10.95
2019-02-19T08:07:45.472Z,11.19
2019-02-19T08:08:46.190Z,11.37
2019-02-19T08:09:46.937Z,11.38
2019-02-19T08:10:47.371Z,11.58
2019-02-19T08:11:47.811Z,11.91
2019-02-19T08:12:48.518Z,12.2
2019-02-19T08:13:48.966Z,11.68
2019-02-19T08:14:52.110Z,12.03
2019-02-19T08:15:51.567Z,12.25
2019-02-19T08:16:51.999Z,12.47
2019-02-19T08:17:52.619Z,12.17
2019-02-19T08:18:54.560Z,12.3
2019-02-19T08:19:55.332Z,12.68
2019-02-19T08:20:56.039Z,12.81
2019-02-19T08:21:59.058Z,12.9
2019-02-19T08:22:58.505Z,12.47
2019-02-19T08:24:03.569Z,12.02
2019-02-19T08:24:13.737Z,11.91
2019-02-19T08:24:26.336Z,11.99
2019-02-19T08:24:35.585Z,11.96
2019-02-19T08:25:36.822Z,11.88
2019-02-19T08:26:35.896Z,12.37
2019-02-19T08:27:37.160Z,13.12
2019-02-19T08:28:40.502Z,13.86
2019-02-19T08:29:38.711Z,14.48
2019-02-19T08:30:43.148Z,15.19
2019-02-19T08:30:54.242Z,15.14
2019-02-19T08:31:05.437Z,15.36
2019-02-19T08:31:16.982Z,15.59
2019-02-19T08:31:28.180Z,15.54
2019-02-19T08:32:28.070Z,15.78
2019-02-19T08:33:30.499Z,16.17
2019-02-19T08:33:43.901Z,16.29
2019-02-19T08:33:56.736Z,16.25
2019-02-19T08:34:58.133Z,16.26
2019-02-19T08:35:06.577Z,16.26
2019-02-19T08:36:07.419Z,16.28
2019-02-19T08:37:08.432Z,16.64
2019-02-19T08:38:09.143Z,16.76
2019-02-19T08:39:09.298Z,15.98
2019-02-19T08:40:10.770Z,14.78
2019-02-19T08:41:11.204Z,13.87
2019-02-19T08:42:12.207Z,12.94
2019-02-19T08:43:12.946Z,12.75
2019-02-19T08:44:14.679Z,12.86
2019-02-19T08:45:17.490Z,13.19
2019-02-19T08:46:17.305Z,13.4
2019-02-19T08:47:17.568Z,13.55
2019-02-19T08:48:21.865Z,13.82
2019-02-19T08:48:30.962Z,13.7
2019-02-19T08:49:31.129Z,13.76
2019-02-19T08:50:31.690Z,13.79
2019-02-19T08:51:32.059Z,13.86
2019-02-19T08:52:32.302Z,14.04
2019-02-19T08:53:32.856Z,14.43
2019-02-19T08:54:33.575Z,14.44
2019-02-19T08:55:35.847Z,14.59
2019-02-19T08:56:41.467Z,14.82
2019-02-19T08:56:52.761Z,14.78
2019-02-19T08:57:05.136Z,14.87
2019-02-19T08:57:17.654Z,14.86
2019-02-19T08:57:31.159Z,15.02
2019-02-19T08:57:42.317Z,14.97
2019-02-19T08:57:54.496Z,15.04
2019-02-19T08:58:51.501Z,14.92
2019-02-19T08:59:54.738Z,14.78
2019-02-19T09:00:53.932Z,14.55
2019-02-19T09:01:58.093Z,14.63
2019-02-19T09:03:00.625Z,14.66
2019-02-19T09:03:10.865Z,14.59
2019-02-19T09:04:11.770Z,13.95
2019-02-19T09:04:21.252Z,14.05
2019-02-19T09:05:23.697Z,14.23
2019-02-19T09:06:23.147Z,14.33
2019-02-19T09:07:23.149Z,14.41
2019-02-19T09:08:24.305Z,14.16
2019-02-19T09:09:25.603Z,13.93
2019-02-19T09:10:26.351Z,14.03
2019-02-19T09:11:27.522Z,14.05
2019-02-19T09:12:28.653Z,13.95
2019-02-19T09:13:29.093Z,13.47
2019-02-19T09:14:30.393Z,13.08
2019-02-19T09:15:31.128Z,13.02
2019-02-19T09:16:34.021Z,12.98
2019-02-19T09:17:35.362Z,12.8
2019-02-19T09:18:38.193Z,12.84
2019-02-19T09:18:51.052Z,12.83
2019-02-19T09:19:03.556Z,12.83
2019-02-19T09:19:15.589Z,12.8
2019-02-19T09:19:27.810Z,12.81
2019-02-19T09:19:38.076Z,12.83
2019-02-19T09:20:41.624Z,12.66
2019-02-19T09:21:44.029Z,12.87
2019-02-19T09:21:53.144Z,12.95
2019-02-19T09:22:55.635Z,13.33
2019-02-19T09:23:55.348Z,13.94
2019-02-19T09:24:57.205Z,14.11
2019-02-19T09:25:58.661Z,14.48
2019-02-19T09:26:58.175Z,14.71
2019-02-19T09:27:58.615Z,15.1
2019-02-19T09:28:59.333Z,15.39
2019-02-19T09:29:59.649Z,15.65
2019-02-19T09:31:01.181Z,16.05
2019-02-19T09:32:01.197Z,16.65
2019-02-19T09:33:01.902Z,16.76
2019-02-19T09:34:01.892Z,17.14
2019-02-19T09:35:02.338Z,17.35
2019-02-19T09:36:03.046Z,17.47
2019-02-19T09:37:03.522Z,17.13
2019-02-19T09:38:07.268Z,17.22
2019-02-19T09:38:20.823Z,17.3
2019-02-19T09:38:32.109Z,17.34
2019-02-19T09:38:44.041Z,17.34
2019-02-19T09:39:47.864Z,16.82
2019-02-19T09:39:56.916Z,16.83
2019-02-19T09:41:00.406Z,17.17
2019-02-19T09:41:59.641Z,17.65
2019-02-19T09:43:00.631Z,17.88
2019-02-19T09:44:05.739Z,17.79
2019-02-19T09:44:16.824Z,17.9
2019-02-19T09:45:15.258Z,18.09
2019-02-19T09:46:16.984Z,18.24
2019-02-19T09:47:18.000Z,18.11
2019-02-19T09:47:28.680Z,18.05
2019-02-19T09:48:29.645Z,17.88
2019-02-19T09:49:30.385Z,17.63
2019-02-19T09:50:30.693Z,17.5
2019-02-19T09:51:31.441Z,17.39
2019-02-19T09:52:33.554Z,17.28
2019-02-19T09:52:46.316Z,17.19
2019-02-19T09:53:02.250Z,17.23
2019-02-19T09:53:11.899Z,17.17
2019-02-19T09:53:23.401Z,17.19
2019-02-19T09:53:33.754Z,17.24
2019-02-19T09:54:33.932Z,17.1
2019-02-19T09:55:34.646Z,16.98
2019-02-19T09:56:36.080Z,17.1
2019-02-19T09:57:36.990Z,16.73
2019-02-19T09:58:37.337Z,16.55
2019-02-19T09:59:38.609Z,16.83
2019-02-19T10:00:39.629Z,16.86
2019-02-19T10:01:40.749Z,17.1
2019-02-19T10:02:44.172Z,17.27
2019-02-19T10:03:42.463Z,16.98
2019-02-19T10:04:44.166Z,16.87
2019-02-19T10:05:44.170Z,17.16
2019-02-19T10:06:45.162Z,17.39
2019-02-19T10:07:46.173Z,17.52
2019-02-19T10:08:46.176Z,17.65
2019-02-19T10:09:46.173Z,17.78
2019-02-19T10:10:47.328Z,17.73
2019-02-19T10:11:48.055Z,17.63
2019-02-19T10:12:49.474Z,17.73
2019-02-19T10:13:50.193Z,17.53
2019-02-19T10:14:51.064Z,17.53
2019-02-19T10:15:54.147Z,17.87
2019-02-19T10:16:52.926Z,17.98
2019-02-19T10:17:54.229Z,18.31
2019-02-19T10:18:54.239Z,18.55
2019-02-19T10:19:55.683Z,18.79
2019-02-19T10:20:56.399Z,18.57
2019-02-19T10:21:56.895Z,18.48
2019-02-19T10:22:58.891Z,18.7
2019-02-19T10:23:59.611Z,18.74
2019-02-19T10:25:03.495Z,19
2019-02-19T10:25:15.058Z,18.98
2019-02-19T10:26:13.683Z,19.19
2019-02-19T10:27:14.477Z,19.22
2019-02-19T10:28:15.476Z,19.81
2019-02-19T10:29:16.188Z,19.84
2019-02-19T10:30:17.213Z,19.85
2019-02-19T10:31:17.756Z,20.11
2019-02-19T10:32:18.828Z,20.44
2019-02-19T10:33:19.880Z,20.74
2019-02-19T10:34:20.218Z,20.92
2019-02-19T10:35:20.708Z,20.95
2019-02-19T10:36:23.266Z,21.05
2019-02-19T10:37:23.007Z,21.13
2019-02-19T10:38:23.693Z,21.38
2019-02-19T10:39:24.690Z,21.01
2019-02-19T10:40:25.422Z,20.5
2019-02-19T10:41:25.983Z,20.42
2019-02-19T10:42:26.708Z,20.27
2019-02-19T10:43:27.448Z,19.97
2019-02-19T10:44:28.139Z,19.99
2019-02-19T10:45:29.301Z,19.99
2019-02-19T10:46:30.459Z,19.84
2019-02-19T10:47:35.806Z,20.14
2019-02-19T10:47:44.327Z,20.15
2019-02-19T10:48:45.000Z,19.94
2019-02-19T10:49:46.449Z,19.75
2019-02-19T10:50:50.803Z,19.63
2019-02-19T10:51:00.370Z,19.64
2019-02-19T10:52:02.200Z,19.75
2019-02-19T10:53:03.229Z,20.07
2019-02-19T10:54:04.187Z,20.18
2019-02-19T10:55:04.926Z,19.99
2019-02-19T10:56:06.498Z,20.18
2019-02-19T10:57:06.221Z,20.6
2019-02-19T10:58:07.659Z,20.83
2019-02-19T10:59:09.097Z,20.6
2019-02-19T11:00:09.966Z,20.15
2019-02-19T11:01:10.688Z,19.94
2019-02-19T11:02:11.576Z,19.67
2019-02-19T11:03:13.085Z,20.08
2019-02-19T11:04:13.080Z,20.17
2019-02-19T11:05:14.239Z,20.49
2019-02-19T11:06:16.667Z,20.59
2019-02-19T11:07:18.249Z,20.56
2019-02-19T11:07:30.094Z,20.52
2019-02-19T11:08:32.846Z,20.37
2019-02-19T11:08:43.522Z,20.29
2019-02-19T11:09:43.965Z,20.4
2019-02-19T11:10:43.110Z,20.34
2019-02-19T11:11:46.246Z,20.6
2019-02-19T11:11:58.996Z,20.52
2019-02-19T11:12:56.190Z,20.24
2019-02-19T11:13:57.188Z,20.4
2019-02-19T11:14:57.636Z,20.48
2019-02-19T11:15:58.070Z,20.55
2019-02-19T11:16:59.514Z,20.03
2019-02-19T11:18:00.235Z,20.08
2019-02-19T11:19:01.188Z,20.12
2019-02-19T11:20:01.916Z,20.29
2019-02-19T11:21:01.931Z,20.3
2019-02-19T11:22:03.412Z,20.49
2019-02-19T11:23:04.188Z,20.4
2019-02-19T11:24:03.937Z,20.22
2019-02-19T11:25:04.941Z,20.37
2019-02-19T11:26:06.286Z,20.18
2019-02-19T11:27:06.927Z,20.26
2019-02-19T11:28:08.114Z,20.04
2019-02-19T11:29:08.826Z,19.82
2019-02-19T11:30:11.152Z,19.85
2019-02-19T11:31:11.829Z,20.08
2019-02-19T11:32:16.140Z,19.96
2019-02-19T11:32:27.100Z,19.94
2019-02-19T11:33:28.123Z,19.96
2019-02-19T11:33:36.386Z,19.99
2019-02-19T11:34:36.338Z,19.97
2019-02-19T11:35:37.060Z,19.94
2019-02-19T11:36:42.059Z,19.7
2019-02-19T11:36:49.838Z,19.63
2019-02-19T11:37:50.990Z,19.26
2019-02-19T11:38:53.222Z,18.7
2019-02-19T11:39:54.909Z,18.88
2019-02-19T11:40:55.622Z,18.91
2019-02-19T11:41:55.447Z,18.98
2019-02-19T11:42:56.163Z,18.86
2019-02-19T11:43:56.966Z,18.76
2019-02-19T11:44:57.229Z,18.43
2019-02-19T11:45:57.392Z,18.42
2019-02-19T11:46:58.115Z,18.37
2019-02-19T11:47:59.753Z,18.15
2019-02-19T11:49:00.185Z,18.16
2019-02-19T11:50:01.484Z,18
2019-02-19T11:51:02.391Z,17.95
2019-02-19T11:52:02.161Z,17.94
2019-02-19T11:53:02.874Z,17.82
2019-02-19T11:54:03.358Z,17.5
2019-02-19T11:55:04.215Z,17.59
2019-02-19T11:56:05.219Z,17.38
2019-02-19T11:57:07.509Z,17.22
2019-02-19T11:57:18.926Z,17.23
2019-02-19T11:58:19.154Z,17.14
2019-02-19T11:59:21.079Z,17.02
2019-02-19T12:00:21.098Z,16.94
2019-02-19T12:01:23.306Z,16.91
2019-02-19T12:01:33.497Z,16.97
2019-02-19T12:02:35.770Z,16.83
2019-02-19T12:03:36.538Z,16.8
2019-02-19T12:04:38.066Z,16.91
2019-02-19T12:05:38.405Z,16.83
2019-02-19T12:06:39.609Z,16.95
2019-02-19T12:07:40.381Z,17.07
2019-02-19T12:08:41.942Z,17.07
2019-02-19T12:09:44.620Z,17.22
2019-02-19T12:10:44.663Z,17.2
2019-02-19T12:11:44.392Z,17.3
2019-02-19T12:12:45.873Z,17.3
2019-02-19T12:13:46.743Z,17.34
2019-02-19T12:14:47.041Z,17.38
2019-02-19T12:15:47.694Z,17.52
2019-02-19T12:16:48.707Z,17.54
2019-02-19T12:17:49.473Z,17.44
2019-02-19T12:18:50.208Z,17.34
2019-02-19T12:19:50.938Z,17.24
2019-02-19T12:20:52.405Z,17.22
2019-02-19T12:21:52.851Z,17.35
2019-02-19T12:22:56.268Z,17.32
2019-02-19T12:23:54.505Z,17.37
2019-02-19T12:24:55.205Z,17.22
2019-02-19T12:25:56.374Z,17.22
2019-02-19T12:26:56.910Z,17.23
2019-02-19T12:27:57.337Z,16.99
2019-02-19T12:28:58.984Z,17.05
2019-02-19T12:30:00.920Z,16.95
2019-02-19T12:31:04.476Z,16.84
2019-02-19T12:31:16.299Z,16.84
2019-02-19T12:32:14.949Z,16.72
2019-02-19T12:32:26.583Z,16.66
2019-02-19T12:33:26.830Z,16.74
2019-02-19T12:34:31.358Z,16.94
2019-02-19T12:34:45.162Z,16.92
2019-02-19T12:34:58.940Z,16.89
2019-02-19T12:35:07.984Z,16.82